Lyndonville, VT (05851)

10:01 AM EST on February 12, 2016 (GMT -0500)
Wheelock | | Change Station
CLOSE
Current Station
Personal Weather Station
Location: Lyndonville, VT
Elevation: 1207 ft
Nearby Weather Stations
Active Advisory: Wind Chill Warning

Elev 1207 ft 44.56 °N, 72.09 °W | Updated 1 minute ago

Clear
Clear
5.1 °F
Feels Like 5 °F
N
2.0
Wind Variable Wind from ESE
Gusts 2.0 mph

Today
High -- | Low -- °F
--% Chance of Precip.
Yesterday
High -- | Low -- °F
Precip. -- in
Pressure 30.03 in
Visibility 10.0 miles
Clouds Clear
Windchill 5 °F
Dew Point -3 °F
Humidity 68%
Rainfall 0.00 in
Snow Depth Not available.
6:53 AM 5:11 PM
Waxing Crescent, 21% visible
METAR KCDA 121455Z AUTO 00000KT 10SM CLR M17/M22 A3003 RMK AO2 T11701224
Pressure 30.03 in
Visibility 10.0 miles
Clouds Clear
Windchill 5 °F
Dew Point -3 °F
Humidity 68%
Rainfall 0.00 in
Snow Depth Not available.
6:53 AM 5:11 PM
Waxing Crescent, 21% visible
METAR KCDA 121455Z AUTO 00000KT 10SM CLR M17/M22 A3003 RMK AO2 T11701224

10-Day Weather Forecast

Almanac

Astronomy

Feb. 12, 2016 Rise Set
Actual Time
Civil Twilight
Nautical Twilight
Astronomical Twilight
Moon
Length of Visible Light
Length of Day
Tomorrow will be .
, % of the Moon is Illuminated

Today's Extremes

State Highs State Lows

Community

WunderPhotos

Upload Photos

1,892,323 photos uploaded!

WunderBlog® & News

Nearby

Air Quality

  Air Quality AQ Index Pollutant
Not available.

Snow Depth

Station Depth Elevation

Earthquake Activity

City Distance Mag. Time & Date
Minimum magnitude displayed is 2.5.

Coastal Water Temperatures

Place Temperature

Stations

Nearby Weather Stations

Station Location Temp. Windchill Dew Point Humidity Wind Precip. Elev Updated Type
                   

Watches & Warnings

Wind Chill Warning
Issued: 3:26 AM EST Feb. 12, 2016 – National Weather Service

... Wind chill warning in effect from 3 am Saturday to 7 PM EST
Sunday...

The National Weather Service in Burlington has issued a wind
chill warning... which is in effect from 3 am Saturday to 7 PM EST
Sunday. This replaces the wind chill watch previously in effect.

* Locations... all of northern New York... as well as central and
northern Vermont.

* Hazard types... dangerously low wind chill values.

* Wind chill readings... as low as 30 to 40 below zero due to
temperatures 20 below to 5 above zero... and winds northwest 10
to 20 mph with gusts up to 30 mph.

* Timing... all weekend.

* Impacts... potential frostbite and hypothermia.

Precautionary/preparedness actions...

A wind chill warning means the combination of very cold air and
strong winds will create dangerously low wind chill values. This
will result in frostbite and lead to hypothermia or death if
precautions are not taken.

Please stay tuned to NOAA Weather Radio... your local media... or
go to www.Weather.Gov/Burlington for further updates on this
weather situation.